createdAt,value
2023-06-21T06:55:25.502Z,101138.53
2023-06-21T06:58:05.018Z,101135.88
2023-06-21T07:00:32.752Z,101142.59
2023-06-21T07:02:59.246Z,101145.72
2023-06-21T07:05:27.088Z,101146.56
2023-06-21T07:07:54.565Z,101156.28
2023-06-21T07:10:21.279Z,101144.25
2023-06-21T07:12:47.699Z,101146.78
2023-06-21T07:15:14.074Z,101150.03
2023-06-21T07:17:40.460Z,101157.44
2023-06-21T07:20:09.310Z,101162.31
2023-06-21T07:22:36.456Z,101165.31
2023-06-21T07:25:02.981Z,101165.81
2023-06-21T07:27:29.677Z,101163.47
2023-06-21T07:29:56.663Z,101165.75
2023-06-21T07:32:23.013Z,101163.91
2023-06-21T07:34:49.648Z,101165.19
2023-06-21T07:37:16.198Z,101167.03
2023-06-21T07:39:53.853Z,101177.00
2023-06-21T07:42:21.156Z,101174.59
2023-06-21T07:44:47.944Z,101162.75
2023-06-21T07:47:14.518Z,101176.22
2023-06-21T07:49:41.145Z,101175.50
2023-06-21T07:52:07.584Z,101180.69
2023-06-21T07:54:33.932Z,101176.06
2023-06-21T07:57:00.340Z,101174.66
2023-06-21T07:59:26.691Z,101176.84
2023-06-21T08:01:53.118Z,101164.41
2023-06-21T08:06:45.972Z,101175.44
2023-06-21T08:09:12.368Z,101186.00
2023-06-21T08:11:38.776Z,101183.84
2023-06-21T08:14:05.154Z,101187.41
2023-06-21T08:16:31.958Z,101184.03
2023-06-21T08:18:58.335Z,101178.69
2023-06-21T08:21:24.749Z,101191.97
2023-06-21T08:23:51.140Z,101194.72
2023-06-21T08:26:17.603Z,101199.44
2023-06-21T08:28:46.350Z,101198.16
2023-06-21T08:31:13.154Z,101196.88
2023-06-21T08:33:39.609Z,101201.41
2023-06-21T08:36:08.052Z,101202.72
2023-06-21T08:38:34.863Z,101204.44
2023-06-21T08:41:03.642Z,101211.94
2023-06-21T08:43:34.328Z,101216.59
2023-06-21T08:46:08.319Z,101213.47
2023-06-21T08:48:36.544Z,101204.22
2023-06-21T08:51:06.422Z,101204.03
2023-06-21T08:53:37.802Z,101205.25
2023-06-21T08:56:05.234Z,101208.41
2023-06-21T08:58:37.015Z,101209.03
2023-06-21T09:01:05.276Z,101215.69
2023-06-21T09:03:44.992Z,101214.63
2023-06-21T09:06:14.475Z,101208.63
2023-06-21T09:08:42.364Z,101203.81
2023-06-21T09:11:09.492Z,101206.47
2023-06-21T09:13:37.145Z,101216.59
2023-06-21T09:16:06.371Z,101215.16
2023-06-21T09:18:37.283Z,101227.53
2023-06-21T09:21:04.342Z,101219.34
2023-06-21T09:23:30.827Z,101217.44
2023-06-21T09:25:57.474Z,101220.81
2023-06-21T09:28:26.299Z,101215.75
2023-06-21T09:30:52.745Z,101221.75
2023-06-21T09:33:19.855Z,101217.88
2023-06-21T09:35:46.931Z,101223.03
2023-06-21T09:38:20.502Z,101222.81
2023-06-21T09:40:49.948Z,101220.78
2023-06-21T09:43:19.938Z,101228.81
2023-06-21T09:46:05.662Z,101229.72
2023-06-21T09:48:35.852Z,101245.44
2023-06-21T09:51:03.829Z,101235.50
2023-06-21T09:53:30.374Z,101226.19
2023-06-21T09:56:02.801Z,101230.44
2023-06-21T09:58:29.961Z,101225.59
2023-06-21T10:01:00.702Z,101224.97
2023-06-21T10:03:28.361Z,101226.50
2023-06-21T10:05:55.941Z,101231.97
2023-06-21T10:08:27.440Z,101222.56
2023-06-21T10:10:54.033Z,101224.97
2023-06-21T10:13:26.944Z,101225.00
2023-06-21T10:15:54.547Z,101229.75
2023-06-21T10:18:21.171Z,101221.81
2023-06-21T10:20:50.282Z,101207.97
2023-06-21T10:23:16.875Z,101213.56
2023-06-21T10:25:45.520Z,101227.34
2023-06-21T10:28:14.609Z,101226.16
2023-06-21T10:30:43.422Z,101236.16
2023-06-21T10:33:10.279Z,101228.13
2023-06-21T10:35:43.318Z,101234.03
2023-06-21T10:38:12.547Z,101235.22
2023-06-21T10:40:41.020Z,101237.38
2023-06-21T10:43:08.612Z,101235.75
2023-06-21T10:45:38.302Z,101234.84
2023-06-21T10:48:06.322Z,101234.16
2023-06-21T10:50:33.658Z,101238.53
2023-06-21T10:53:00.690Z,101238.53
2023-06-21T10:55:28.059Z,101253.09
2023-06-21T10:57:55.144Z,101251.59
2023-06-21T11:00:22.910Z,101249.41
2023-06-21T11:02:49.652Z,101259.59
2023-06-21T11:05:22.103Z,101256.72
2023-06-21T11:07:54.590Z,101252.31
2023-06-21T11:10:21.893Z,101254.13
2023-06-21T11:12:48.573Z,101255.78
2023-06-21T11:15:21.545Z,101254.28
2023-06-21T11:17:56.266Z,101252.41
2023-06-21T11:20:24.884Z,101251.09
2023-06-21T11:23:01.762Z,101259.53
2023-06-21T11:25:29.110Z,101273.69
2023-06-21T11:28:15.084Z,101264.00
2023-06-21T11:31:03.429Z,101275.44
2023-06-21T11:33:30.732Z,101273.19
2023-06-21T11:36:04.662Z,101280.94
2023-06-21T11:38:31.662Z,101277.22
2023-06-21T11:41:28.866Z,101271.88
2023-06-21T12:02:15.838Z,101287.00
2023-06-21T12:04:44.047Z,101281.19
2023-06-21T12:07:11.418Z,101293.19
2023-06-21T12:09:39.173Z,101291.16
2023-06-21T12:12:06.603Z,101282.56
2023-06-21T12:14:33.301Z,101276.69
2023-06-21T12:17:00.654Z,101276.78
2023-06-21T12:19:29.723Z,101285.88
2023-06-21T12:22:00.072Z,101290.81
2023-06-21T12:24:32.082Z,101297.25
2023-06-21T12:27:02.200Z,101291.34
2023-06-21T12:29:29.165Z,101301.69
2023-06-21T12:31:59.222Z,101300.59
2023-06-21T12:34:26.853Z,101287.47
2023-06-21T12:40:04.817Z,101297.06
2023-06-21T12:43:01.089Z,101299.06
2023-06-21T12:45:33.521Z,101288.72
2023-06-21T12:48:51.554Z,101307.09
2023-06-21T12:51:08.951Z,101304.00
2023-06-21T12:54:08.744Z,101307.72
2023-06-21T13:02:38.930Z,101305.84
2023-06-21T13:05:05.642Z,101314.34
2023-06-21T13:07:32.028Z,101316.88
2023-06-21T13:09:58.567Z,101311.19
2023-06-21T13:12:29.577Z,101318.81
2023-06-21T13:14:59.300Z,101318.78
2023-06-21T13:17:34.397Z,101309.00
2023-06-21T13:20:02.943Z,101309.00
2023-06-21T13:22:30.748Z,101305.16
2023-06-21T13:27:45.893Z,101302.63
2023-06-21T13:30:12.773Z,101303.94
2023-06-21T13:32:40.414Z,101317.06
2023-06-21T13:35:10.108Z,101288.53
2023-06-21T13:37:36.645Z,101271.78
2023-06-21T13:40:03.270Z,101297.94
2023-06-21T13:42:29.786Z,101311.91
2023-06-21T13:44:56.475Z,101318.78
2023-06-21T13:47:23.082Z,101311.13
2023-06-21T13:49:50.015Z,101306.13
2023-06-21T13:52:20.513Z,101302.59
2023-06-21T13:54:47.540Z,101309.34
2023-06-21T13:57:15.940Z,101292.84
2023-06-21T13:59:46.788Z,101292.84
2023-06-21T14:02:14.132Z,101296.09
2023-06-21T14:04:45.325Z,101309.78
2023-06-21T14:07:12.971Z,101298.78
2023-06-21T14:10:06.545Z,101254.91
2023-06-21T14:12:34.093Z,101283.97
2023-06-21T14:15:00.874Z,101265.22
2023-06-21T14:17:27.617Z,101241.06
2023-06-21T14:19:54.396Z,101247.13
2023-06-21T14:22:20.962Z,101265.81
2023-06-21T14:25:25.976Z,101240.81
2023-06-21T14:27:52.754Z,101270.44
2023-06-21T14:30:29.953Z,101262.44
2023-06-21T14:32:56.882Z,101252.44
2023-06-21T14:35:25.045Z,101221.59
2023-06-21T14:37:54.948Z,101296.31
2023-06-21T14:40:21.684Z,101260.78
2023-06-21T14:42:48.400Z,101189.41
2023-06-21T14:45:14.944Z,101269.88
2023-06-21T14:47:41.559Z,101283.63
2023-06-21T14:50:08.382Z,101292.38
2023-06-21T14:52:34.885Z,101284.69
2023-06-21T14:55:01.378Z,101273.13
2023-06-21T14:57:27.941Z,101289.19
2023-06-21T14:59:54.381Z,101290.53
2023-06-21T15:02:20.989Z,101292.94
2023-06-21T15:04:47.499Z,101288.06
2023-06-21T15:07:19.017Z,101302.88
2023-06-21T15:09:46.755Z,101307.78
2023-06-21T15:12:13.600Z,101285.06
2023-06-21T15:14:40.324Z,101308.81
2023-06-21T15:17:07.162Z,101296.59
2023-06-21T15:19:33.612Z,101294.63
2023-06-21T15:22:00.195Z,101307.44
2023-06-21T15:24:26.684Z,101303.31
2023-06-21T15:26:53.570Z,101290.31
2023-06-21T15:29:20.466Z,101295.72
2023-06-21T15:31:46.936Z,101316.69
2023-06-21T15:34:14.206Z,101306.47
2023-06-21T15:36:42.466Z,101308.91
2023-06-21T15:39:10.054Z,101308.69
2023-06-21T15:41:37.816Z,101310.91
2023-06-21T15:44:07.220Z,101295.72
2023-06-21T15:46:34.687Z,101322.78
2023-06-21T15:49:04.542Z,101316.53
2023-06-21T15:51:31.295Z,101327.81
2023-06-21T15:53:57.986Z,101314.78
2023-06-21T15:56:25.991Z,101319.59
2023-06-21T15:58:52.885Z,101299.88
2023-06-21T16:01:20.433Z,101305.47
2023-06-21T16:03:48.446Z,101311.44
2023-06-21T16:06:16.077Z,101310.63
2023-06-21T16:08:43.038Z,101295.25
2023-06-21T16:11:13.005Z,101312.25
2023-06-21T16:16:13.588Z,101320.72
2023-06-21T16:18:40.209Z,101309.22
2023-06-21T16:21:07.205Z,101325.34
2023-06-21T16:23:34.449Z,101255.09
2023-06-21T16:26:02.036Z,101306.31
2023-06-21T16:28:28.992Z,101317.00
2023-06-21T16:30:55.611Z,101322.94
2023-06-21T16:33:22.191Z,101333.19
2023-06-21T16:35:49.178Z,101315.34
2023-06-21T16:38:16.055Z,101312.84
2023-06-21T16:40:42.706Z,101310.91
2023-06-21T16:43:09.385Z,101301.66
2023-06-21T16:45:36.023Z,101304.53
2023-06-21T16:48:03.429Z,101308.53
2023-06-21T16:50:30.176Z,101295.34
2023-06-21T16:52:56.875Z,101318.28
2023-06-21T16:55:23.361Z,101318.38
2023-06-21T16:57:49.983Z,101309.16
2023-06-21T17:00:16.843Z,101320.94
2023-06-21T17:02:43.874Z,101306.72
2023-06-21T17:05:23.693Z,101332.69
2023-06-21T17:10:50.064Z,101284.88
2023-06-21T17:13:24.507Z,101316.88
2023-06-21T17:15:57.523Z,101328.59
2023-06-21T17:21:17.218Z,101296.88
2023-06-21T17:23:44.052Z,101318.66
2023-06-21T17:26:10.936Z,101280.25
2023-06-21T17:28:37.549Z,101295.66
2023-06-21T17:31:04.130Z,101305.84
2023-06-21T17:33:30.922Z,101335.22
2023-06-21T17:35:57.494Z,101332.44
2023-06-21T17:38:23.998Z,101318.25
2023-06-21T17:40:50.472Z,101323.41
2023-06-21T17:43:17.083Z,101322.97
2023-06-21T17:45:43.756Z,101316.13
2023-06-21T17:48:10.303Z,101329.56
2023-06-21T17:50:36.791Z,101328.91
2023-06-21T17:53:03.309Z,101334.72
2023-06-21T17:55:30.053Z,101330.56
2023-06-21T17:57:56.853Z,101333.06
2023-06-21T18:00:23.568Z,101361.38
2023-06-21T18:02:50.574Z,101352.19
2023-06-21T18:05:17.106Z,101350.44
2023-06-21T18:07:43.715Z,101345.03
2023-06-21T18:10:10.667Z,101344.19
2023-06-21T18:12:37.214Z,101319.97
2023-06-21T18:15:04.530Z,101350.00
2023-06-21T18:17:31.106Z,101346.09
2023-06-21T18:19:57.587Z,101348.03
2023-06-21T18:22:33.651Z,101342.50
2023-06-21T18:25:08.877Z,101354.31
2023-06-21T18:27:35.438Z,101353.53
2023-06-21T18:30:08.791Z,101353.41
2023-06-21T18:32:39.177Z,101355.22
2023-06-21T18:35:09.697Z,101345.06
2023-06-21T18:37:38.572Z,101355.94
2023-06-21T18:40:05.977Z,101355.94
2023-06-21T18:42:32.530Z,101348.06
2023-06-21T18:44:59.259Z,101353.47
2023-06-21T18:47:25.860Z,101328.84
